createdAt,value
2023-04-11T00:01:48.746Z,9.70
2023-04-11T00:04:20.683Z,9.70
2023-04-11T00:06:50.434Z,9.80
2023-04-11T00:09:18.374Z,9.80
2023-04-11T00:11:46.359Z,9.70
2023-04-11T00:14:15.195Z,9.70
2023-04-11T00:16:43.294Z,9.70
2023-04-11T00:19:11.292Z,9.70
2023-04-11T00:21:40.455Z,9.70
2023-04-11T00:24:09.969Z,9.70
2023-04-11T00:26:38.059Z,9.70
2023-04-11T00:29:09.081Z,9.60
2023-04-11T00:31:37.064Z,9.70
2023-04-11T00:34:05.475Z,9.70
2023-04-11T00:36:33.509Z,9.70
2023-04-11T00:39:02.240Z,9.70
2023-04-11T00:41:31.554Z,9.70
2023-04-11T00:43:59.609Z,9.70
2023-04-11T00:46:27.967Z,9.70
2023-04-11T00:48:56.431Z,9.60
2023-04-11T00:51:25.016Z,9.70
2023-04-11T00:53:52.982Z,9.70
2023-04-11T00:56:23.615Z,9.70
2023-04-11T00:58:53.298Z,9.70
2023-04-11T01:01:25.092Z,9.70
2023-04-11T01:03:53.764Z,9.70
2023-04-11T01:06:22.742Z,9.60
2023-04-11T01:08:51.655Z,9.60
2023-04-11T01:11:20.849Z,9.70
2023-04-11T01:13:49.662Z,9.60
2023-04-11T01:16:21.420Z,9.60
2023-04-11T01:18:49.943Z,9.60
2023-04-11T01:21:19.403Z,9.60
2023-04-11T01:23:52.529Z,9.60
2023-04-11T01:26:20.724Z,9.60
2023-04-11T01:28:48.866Z,9.60
2023-04-11T01:31:17.479Z,9.60
2023-04-11T01:33:46.952Z,9.60
2023-04-11T01:36:15.102Z,9.60
2023-04-11T01:38:43.131Z,9.60
2023-04-11T01:41:13.276Z,9.60
2023-04-11T01:43:41.378Z,9.60
2023-04-11T01:46:11.135Z,9.60
2023-04-11T01:48:41.988Z,9.50
2023-04-11T01:51:12.594Z,9.50
2023-04-11T01:53:40.855Z,9.50
2023-04-11T01:56:09.959Z,9.50
2023-04-11T01:58:39.368Z,9.50
2023-04-11T02:01:07.877Z,9.40
2023-04-11T02:03:36.858Z,9.40
2023-04-11T02:06:06.912Z,9.50
2023-04-11T02:08:35.060Z,9.50
2023-04-11T02:11:03.183Z,9.40
2023-04-11T02:13:31.424Z,9.30
2023-04-11T02:16:08.075Z,9.30
2023-04-11T02:18:38.138Z,9.30
2023-04-11T02:21:07.224Z,9.20
2023-04-11T02:23:35.374Z,9.20
2023-04-11T02:26:03.603Z,9.10
2023-04-11T02:28:31.895Z,9.10
2023-04-11T02:31:00.019Z,9.10
2023-04-11T02:33:29.586Z,9.10
2023-04-11T02:35:57.665Z,9.00
2023-04-11T02:38:27.225Z,9.00
2023-04-11T02:40:55.627Z,9.00
2023-04-11T02:43:23.677Z,9.00
2023-04-11T02:46:01.938Z,9.00
2023-04-11T02:48:39.520Z,9.00
2023-04-11T02:51:08.157Z,8.90
2023-04-11T02:53:36.180Z,8.90
2023-04-11T02:56:04.447Z,8.90
2023-04-11T02:58:33.113Z,8.90
2023-04-11T03:01:05.956Z,8.90
2023-04-11T03:03:34.357Z,8.80
2023-04-11T03:06:03.919Z,8.80
2023-04-11T03:08:32.276Z,8.80
2023-04-11T03:11:03.033Z,8.80
2023-04-11T03:13:31.606Z,8.90
2023-04-11T03:16:00.307Z,8.80
2023-04-11T03:18:30.590Z,8.80
2023-04-11T03:21:07.984Z,8.80
2023-04-11T03:23:36.187Z,8.70
2023-04-11T03:26:04.841Z,8.70
2023-04-11T03:28:33.765Z,8.70
2023-04-11T03:31:01.908Z,8.70
2023-04-11T03:33:30.372Z,8.70
2023-04-11T03:35:58.493Z,8.70
2023-04-11T03:38:29.136Z,8.60
2023-04-11T03:40:57.156Z,8.60
2023-04-11T03:43:27.283Z,8.70
2023-04-11T03:46:01.764Z,8.70
2023-04-11T03:48:39.588Z,8.60
2023-04-11T03:51:10.209Z,8.60
2023-04-11T03:53:52.339Z,8.60
2023-04-11T03:56:34.639Z,8.60
2023-04-11T03:59:02.965Z,8.50
2023-04-11T04:01:43.189Z,8.50
2023-04-11T04:04:11.519Z,8.50
2023-04-11T04:06:44.211Z,8.50
2023-04-11T04:09:13.607Z,8.40
2023-04-11T04:11:49.712Z,8.40
2023-04-11T04:14:20.554Z,8.30
2023-04-11T04:16:51.171Z,8.20
2023-04-11T04:19:21.043Z,8.20
2023-04-11T04:21:50.580Z,8.10
2023-04-11T04:24:20.960Z,8.10
2023-04-11T04:26:57.925Z,8.00
2023-04-11T04:30:03.840Z,8.00
2023-04-11T04:32:43.758Z,8.00
2023-04-11T04:35:16.776Z,8.00
2023-04-11T04:37:46.654Z,8.00
2023-04-11T04:40:37.954Z,8.00
2023-04-11T04:43:12.889Z,8.00
2023-04-11T04:45:49.893Z,8.00
2023-04-11T04:48:25.424Z,8.00
2023-04-11T04:50:54.098Z,8.10
2023-04-11T04:53:22.332Z,8.20
2023-04-11T04:55:57.052Z,8.20
2023-04-11T04:58:28.979Z,8.20
2023-04-11T05:00:58.354Z,8.20
2023-04-11T05:03:30.611Z,8.20
2023-04-11T05:05:59.578Z,8.30
2023-04-11T05:08:27.743Z,8.30
2023-04-11T05:11:01.818Z,8.30
2023-04-11T05:13:30.290Z,8.30
2023-04-11T05:15:58.344Z,8.30
2023-04-11T05:18:29.391Z,8.30
2023-04-11T05:20:58.142Z,8.20
2023-04-11T05:23:32.237Z,8.20
2023-04-11T05:26:04.434Z,8.20
2023-04-11T05:28:34.759Z,8.20
2023-04-11T05:31:08.440Z,8.20
2023-04-11T05:33:40.973Z,8.10
2023-04-11T05:36:13.728Z,8.10
2023-04-11T05:38:44.576Z,8.10
2023-04-11T05:41:14.386Z,8.10
2023-04-11T05:43:44.324Z,8.00
2023-04-11T05:46:12.790Z,8.00
2023-04-11T05:48:41.391Z,7.90
2023-04-11T05:51:14.103Z,8.00
2023-04-11T05:53:42.208Z,8.00
2023-04-11T05:56:12.578Z,8.10
2023-04-11T05:58:44.287Z,8.10
2023-04-11T06:01:14.280Z,8.10
2023-04-11T06:03:42.552Z,8.10
2023-04-11T06:06:10.785Z,8.20
2023-04-11T06:08:39.174Z,8.20
2023-04-11T06:11:07.858Z,8.40
2023-04-11T06:13:40.550Z,8.50
2023-04-11T06:16:10.814Z,8.50
2023-04-11T06:18:38.828Z,8.50
2023-04-11T06:21:10.121Z,8.50
2023-04-11T06:23:38.369Z,8.50
2023-04-11T06:26:06.689Z,8.60
2023-04-11T06:28:34.702Z,8.60
2023-04-11T06:31:03.269Z,8.60
2023-04-11T06:33:32.850Z,8.60
2023-04-11T06:36:00.813Z,8.70
2023-04-11T06:38:29.088Z,8.70
2023-04-11T06:40:58.901Z,8.70
2023-04-11T06:43:26.852Z,8.90
2023-04-11T06:45:54.823Z,9.00
2023-04-11T06:48:22.977Z,8.90
2023-04-11T06:50:52.744Z,8.90
2023-04-11T06:53:21.720Z,8.90
2023-04-11T06:55:50.426Z,8.90
2023-04-11T06:58:18.909Z,9.00
2023-04-11T07:00:46.953Z,9.10
2023-04-11T07:03:15.156Z,9.10
2023-04-11T07:05:43.230Z,9.10
2023-04-11T07:08:13.169Z,9.10
2023-04-11T07:10:41.326Z,9.10
2023-04-11T07:13:09.300Z,9.20
2023-04-11T07:15:38.092Z,9.20
2023-04-11T07:18:06.274Z,9.40
2023-04-11T07:20:36.199Z,9.50
2023-04-11T07:23:04.456Z,9.70
2023-04-11T07:25:34.454Z,9.80
2023-04-11T07:28:02.468Z,9.80
2023-04-11T07:30:30.680Z,9.70
2023-04-11T07:32:58.838Z,9.70
2023-04-11T07:35:28.434Z,9.70
2023-04-11T07:37:57.657Z,9.70
2023-04-11T07:40:26.847Z,9.80
2023-04-11T07:42:56.642Z,9.80
2023-04-11T07:45:24.984Z,9.90
2023-04-11T07:47:53.175Z,9.90
2023-04-11T07:50:21.651Z,9.90
2023-04-11T07:52:49.927Z,9.90
2023-04-11T07:55:18.581Z,9.70
2023-04-11T07:57:46.975Z,9.80
2023-04-11T08:00:24.219Z,9.80
2023-04-11T08:02:53.058Z,9.70
2023-04-11T08:05:21.467Z,9.50
2023-04-11T08:07:49.661Z,9.30
2023-04-11T08:10:19.749Z,9.00
2023-04-11T08:12:51.022Z,8.90
2023-04-11T08:15:19.209Z,8.80
2023-04-11T08:17:49.698Z,8.80
2023-04-11T08:20:18.466Z,8.80
2023-04-11T08:22:46.939Z,9.00
2023-04-11T08:25:16.361Z,9.20
2023-04-11T08:27:47.540Z,9.30
2023-04-11T08:30:19.081Z,9.40
2023-04-11T08:32:48.775Z,9.50
2023-04-11T08:35:19.775Z,9.80
2023-04-11T08:37:49.409Z,10.00
2023-04-11T08:40:17.647Z,10.10
2023-04-11T08:42:46.987Z,10.00
2023-04-11T08:45:17.386Z,10.00
2023-04-11T08:47:45.917Z,10.00
2023-04-11T08:50:15.616Z,9.90
2023-04-11T08:52:45.741Z,9.90
2023-04-11T08:55:14.091Z,9.90
2023-04-11T08:57:42.405Z,10.00
2023-04-11T09:00:14.273Z,10.00
2023-04-11T09:03:02.726Z,10.00
2023-04-11T09:05:36.649Z,10.10
2023-04-11T09:08:06.694Z,10.10
2023-04-11T09:10:35.588Z,9.90
2023-04-11T09:13:19.693Z,9.60
2023-04-11T09:15:48.101Z,9.30
2023-04-11T09:18:34.519Z,9.20
2023-04-11T09:21:05.397Z,9.20
2023-04-11T09:23:35.261Z,9.20
2023-04-11T09:26:08.167Z,9.20
2023-04-11T09:28:44.516Z,9.40
2023-04-11T09:31:13.811Z,9.60
2023-04-11T09:33:53.757Z,9.70
2023-04-11T09:36:25.433Z,9.70
2023-04-11T09:38:53.884Z,9.70
2023-04-11T09:41:32.269Z,9.70
2023-04-11T09:44:01.378Z,9.60
2023-04-11T09:46:29.666Z,9.60
2023-04-11T09:48:59.463Z,9.60
2023-04-11T09:51:36.620Z,9.60
2023-04-11T09:54:06.580Z,9.60
2023-04-11T09:56:35.571Z,9.70
2023-04-11T09:59:05.490Z,9.80
2023-04-11T10:01:34.360Z,9.90
2023-04-11T10:04:04.367Z,10.00
2023-04-11T10:06:42.935Z,10.20
2023-04-11T10:09:13.420Z,10.30
2023-04-11T10:11:42.961Z,10.50
2023-04-11T10:14:36.174Z,10.80
2023-04-11T10:17:18.616Z,11.10
2023-04-11T10:19:51.663Z,11.30
2023-04-11T10:22:57.230Z,11.20
2023-04-11T10:25:27.133Z,11.20
2023-04-11T10:28:00.742Z,11.20
2023-04-11T10:31:02.113Z,11.10
2023-04-11T10:33:30.286Z,11.10
2023-04-11T10:35:59.986Z,11.00
2023-04-11T10:38:48.925Z,11.00
2023-04-11T10:41:26.346Z,11.00
2023-04-11T10:44:14.956Z,11.00
2023-04-11T10:46:47.458Z,10.90
2023-04-11T10:49:33.355Z,10.70
2023-04-11T10:52:21.616Z,10.70
2023-04-11T10:54:51.525Z,10.70
2023-04-11T10:57:21.553Z,10.80
2023-04-11T11:00:00.001Z,10.90
2023-04-11T11:02:40.258Z,10.90
2023-04-11T11:05:19.214Z,10.90
2023-04-11T11:07:48.660Z,10.60
2023-04-11T11:10:17.281Z,10.30
2023-04-11T11:12:56.182Z,10.30
2023-04-11T11:15:24.324Z,10.30
2023-04-11T11:17:52.841Z,10.10
2023-04-11T11:20:23.812Z,10.10
2023-04-11T11:23:03.342Z,10.10
2023-04-11T11:25:31.885Z,10.20
2023-04-11T11:28:03.213Z,10.20
2023-04-11T11:30:31.646Z,10.30
2023-04-11T11:32:59.885Z,10.30
2023-04-11T11:35:30.976Z,10.30
2023-04-11T11:37:59.086Z,10.40
2023-04-11T11:40:27.325Z,10.60
2023-04-11T11:42:55.487Z,10.70
2023-04-11T11:45:27.113Z,10.80
2023-04-11T11:47:55.230Z,10.90
2023-04-11T11:50:28.202Z,11.00
2023-04-11T11:52:56.577Z,11.00
2023-04-11T11:55:32.347Z,11.10
2023-04-11T11:58:02.721Z,11.20
2023-04-11T12:00:38.016Z,11.30
2023-04-11T12:03:07.256Z,11.40
2023-04-11T12:05:35.972Z,11.50
2023-04-11T12:08:05.920Z,11.70
2023-04-11T12:10:39.904Z,11.70
2023-04-11T12:13:19.957Z,11.70
2023-04-11T12:15:53.742Z,12.00
2023-04-11T12:18:24.630Z,12.20
2023-04-11T12:20:53.560Z,12.30
2023-04-11T12:23:22.521Z,12.30
2023-04-11T12:25:51.139Z,12.30
2023-04-11T12:28:19.360Z,12.30
2023-04-11T12:30:47.418Z,12.30
2023-04-11T12:33:17.559Z,12.50
2023-04-11T12:35:45.928Z,12.30
2023-04-11T12:38:16.636Z,12.30
2023-04-11T12:40:46.498Z,12.30
2023-04-11T12:43:14.543Z,12.20
2023-04-11T12:45:51.117Z,12.10
2023-04-11T12:48:20.482Z,12.00
2023-04-11T12:50:50.480Z,11.90
2023-04-11T12:53:18.592Z,11.80
2023-04-11T12:55:46.986Z,11.80
2023-04-11T12:58:15.764Z,11.80
2023-04-11T13:00:43.787Z,11.80
2023-04-11T13:03:12.180Z,11.90
2023-04-11T13:05:41.696Z,12.10
2023-04-11T13:08:09.797Z,12.40
2023-04-11T13:10:37.982Z,12.40
2023-04-11T13:13:17.463Z,12.40
2023-04-11T13:15:46.454Z,12.40
2023-04-11T13:18:14.786Z,12.50
2023-04-11T13:20:44.649Z,12.50
2023-04-11T13:23:14.880Z,12.40
2023-04-11T13:25:44.690Z,12.50
2023-04-11T13:28:13.568Z,12.60
2023-04-11T13:30:42.179Z,12.70
2023-04-11T13:33:10.596Z,12.90
2023-04-11T13:35:38.768Z,13.00
2023-04-11T13:38:08.181Z,13.10
2023-04-11T13:40:38.144Z,13.10
2023-04-11T13:43:10.906Z,13.20
2023-04-11T13:45:42.412Z,13.30
2023-04-11T13:48:10.530Z,13.20
2023-04-11T13:50:39.338Z,13.20
2023-04-11T13:53:11.453Z,13.20
2023-04-11T13:55:41.077Z,13.10
2023-04-11T13:58:09.279Z,13.10
2023-04-11T14:00:37.965Z,13.10
2023-04-11T14:03:06.343Z,13.20
2023-04-11T14:05:35.639Z,13.20
2023-04-11T14:08:05.379Z,13.40
2023-04-11T14:10:34.811Z,13.50
2023-04-11T14:13:03.700Z,13.60
2023-04-11T14:15:31.921Z,13.50
2023-04-11T14:18:00.067Z,13.50
2023-04-11T14:20:29.039Z,13.50
2023-04-11T14:22:57.450Z,13.40
2023-04-11T14:25:25.547Z,13.40
2023-04-11T14:27:54.907Z,13.30
2023-04-11T14:30:23.084Z,13.30
2023-04-11T14:32:51.775Z,13.40
2023-04-11T14:35:19.943Z,13.40
2023-04-11T14:37:48.856Z,13.40
2023-04-11T14:40:17.321Z,13.80
2023-04-11T14:42:46.003Z,13.20
2023-04-11T14:45:17.004Z,13.10
2023-04-11T14:47:45.147Z,13.10
2023-04-11T14:50:13.445Z,13.30
2023-04-11T14:52:41.697Z,13.20
2023-04-11T14:55:10.689Z,13.30
2023-04-11T14:57:49.220Z,13.30
2023-04-11T15:00:20.261Z,13.30
2023-04-11T15:02:49.758Z,13.40
2023-04-11T15:05:19.743Z,13.30
2023-04-11T15:07:49.252Z,13.20
2023-04-11T15:10:19.602Z,13.20
2023-04-11T15:12:47.976Z,13.20
2023-04-11T15:15:16.443Z,13.10
2023-04-11T15:17:49.129Z,13.20
2023-04-11T15:20:20.019Z,13.20
2023-04-11T15:22:49.593Z,13.10
2023-04-11T15:25:17.784Z,13.10
2023-04-11T15:27:45.899Z,13.20
2023-04-11T15:30:14.339Z,13.20
2023-04-11T15:32:43.837Z,13.20
2023-04-11T15:35:13.488Z,13.20
2023-04-11T15:37:42.041Z,13.20
2023-04-11T15:40:11.946Z,13.30
2023-04-11T15:42:41.456Z,13.30
2023-04-11T15:45:10.081Z,13.30
2023-04-11T15:47:38.417Z,13.30
2023-04-11T15:50:07.339Z,13.30
2023-04-11T15:52:36.723Z,13.30
2023-04-11T15:55:05.538Z,13.30
2023-04-11T15:57:33.676Z,13.30
2023-04-11T16:00:01.931Z,13.20
2023-04-11T16:02:41.412Z,13.20
2023-04-11T16:05:10.159Z,13.10
2023-04-11T16:07:39.699Z,13.10
2023-04-11T16:10:09.153Z,13.00
2023-04-11T16:12:37.898Z,13.00
2023-04-11T16:15:07.221Z,13.00
2023-04-11T16:17:35.857Z,12.90
2023-04-11T16:20:07.867Z,12.90
2023-04-11T16:22:37.609Z,12.80
2023-04-11T16:25:08.504Z,12.70
2023-04-11T16:27:38.111Z,12.60
2023-04-11T16:30:09.449Z,12.60
2023-04-11T16:32:37.760Z,12.50
2023-04-11T16:35:06.534Z,12.50
2023-04-11T16:37:34.727Z,12.50
2023-04-11T16:40:06.518Z,12.50
2023-04-11T16:42:36.270Z,12.60
2023-04-11T16:45:04.632Z,12.60
2023-04-11T16:47:32.848Z,12.60
2023-04-11T16:50:01.357Z,12.50
2023-04-11T16:52:29.738Z,12.60
2023-04-11T16:54:57.728Z,12.70
2023-04-11T16:57:27.473Z,12.60
2023-04-11T16:59:57.001Z,12.60
2023-04-11T17:02:25.479Z,12.60
2023-04-11T17:04:53.573Z,12.60
2023-04-11T17:07:21.897Z,12.50
2023-04-11T17:09:50.333Z,12.60
2023-04-11T17:12:18.652Z,12.50
2023-04-11T17:14:47.530Z,12.40
2023-04-11T17:17:16.924Z,12.30
2023-04-11T17:19:44.992Z,12.30
2023-04-11T17:22:13.201Z,12.20
2023-04-11T17:24:42.034Z,12.20
2023-04-11T17:27:10.149Z,12.10
2023-04-11T17:29:38.356Z,12.10
2023-04-11T17:32:07.156Z,12.00
2023-04-11T17:34:36.947Z,11.90
2023-04-11T17:37:06.797Z,11.90
2023-04-11T17:39:36.773Z,11.80
2023-04-11T17:42:05.349Z,11.80
2023-04-11T17:44:34.227Z,11.80
2023-04-11T17:47:05.408Z,11.70
2023-04-11T17:49:36.132Z,11.70
2023-04-11T17:52:04.214Z,11.60
2023-04-11T17:54:32.323Z,11.60
2023-04-11T17:57:00.404Z,11.50
2023-04-11T17:59:29.488Z,11.50
2023-04-11T18:01:57.904Z,11.50
2023-04-11T18:04:26.164Z,11.40
2023-04-11T18:06:55.997Z,11.40
2023-04-11T18:09:27.380Z,11.30
2023-04-11T18:11:55.761Z,11.30
2023-04-11T18:14:24.211Z,11.30
2023-04-11T18:16:52.426Z,11.20
2023-04-11T18:19:20.420Z,11.20
2023-04-11T18:21:50.519Z,11.10
2023-04-11T18:24:20.059Z,11.10
2023-04-11T18:26:48.473Z,11.00
2023-04-11T18:29:16.585Z,11.00
2023-04-11T18:31:44.717Z,11.00
2023-04-11T18:34:13.304Z,11.00
2023-04-11T18:36:41.980Z,10.90
2023-04-11T18:39:10.377Z,10.90
2023-04-11T18:41:39.878Z,10.90
2023-04-11T18:44:11.296Z,10.90
2023-04-11T18:46:42.460Z,10.80
2023-04-11T18:49:11.289Z,10.80
2023-04-11T18:51:39.953Z,10.80
2023-04-11T18:54:08.081Z,10.80
2023-04-11T18:56:38.857Z,10.80
2023-04-11T18:59:10.063Z,10.70
2023-04-11T19:01:39.489Z,10.70
2023-04-11T19:04:08.330Z,10.80
2023-04-11T19:06:36.980Z,10.70
2023-04-11T19:09:06.024Z,10.60
2023-04-11T19:11:35.058Z,10.60
2023-04-11T19:14:03.244Z,10.50
2023-04-11T19:16:33.938Z,10.50
2023-04-11T19:19:02.080Z,10.60
2023-04-11T19:21:30.800Z,10.50
2023-04-11T19:23:59.693Z,10.50
2023-04-11T19:26:28.288Z,10.40
2023-04-11T19:28:56.618Z,10.40
2023-04-11T19:31:26.128Z,10.40
2023-04-11T19:33:56.200Z,10.40
2023-04-11T19:36:24.617Z,10.30
2023-04-11T19:38:52.747Z,10.30
2023-04-11T19:41:20.995Z,10.30
2023-04-11T19:43:49.182Z,10.30
2023-04-11T19:46:18.141Z,10.30
2023-04-11T19:48:46.530Z,10.30
2023-04-11T19:51:17.245Z,10.30
2023-04-11T19:53:45.944Z,10.30
2023-04-11T19:56:15.093Z,10.20
2023-04-11T19:58:48.565Z,10.20
2023-04-11T20:01:16.925Z,10.20
2023-04-11T20:03:45.155Z,10.20
2023-04-11T20:06:14.335Z,10.10
2023-04-11T20:08:44.035Z,10.10
2023-04-11T20:11:15.770Z,10.10
2023-04-11T20:13:45.449Z,10.10
2023-04-11T20:16:13.559Z,10.10
2023-04-11T20:18:41.641Z,10.10
2023-04-11T20:21:09.663Z,10.10
2023-04-11T20:23:37.722Z,10.10
2023-04-11T20:26:07.169Z,10.10
2023-04-11T20:28:35.135Z,10.10
2023-04-11T20:31:04.575Z,10.10
2023-04-11T20:33:34.040Z,10.00
2023-04-11T20:36:03.295Z,10.00
2023-04-11T20:38:31.796Z,10.00
2023-04-11T20:41:03.656Z,10.00
2023-04-11T20:43:33.309Z,10.00
2023-04-11T20:46:01.503Z,10.00
2023-04-11T20:48:31.982Z,10.00
2023-04-11T20:51:01.681Z,10.00
2023-04-11T20:53:30.123Z,9.90
2023-04-11T20:55:58.487Z,9.90
2023-04-11T20:58:28.047Z,9.90
2023-04-11T21:00:57.741Z,9.90
2023-04-11T21:03:25.913Z,9.90
2023-04-11T21:05:55.180Z,9.90
2023-04-11T21:08:24.051Z,9.90
2023-04-11T21:10:52.404Z,9.90
2023-04-11T21:13:20.478Z,10.00
2023-04-11T21:15:48.757Z,9.90
2023-04-11T21:18:18.367Z,9.90
2023-04-11T21:20:46.490Z,9.90
2023-04-11T21:23:14.538Z,9.90
2023-04-11T21:25:42.860Z,9.90
2023-04-11T21:28:11.228Z,9.90
2023-04-11T21:30:39.591Z,9.90
2023-04-11T21:33:07.885Z,10.00
2023-04-11T21:35:37.540Z,10.00
2023-04-11T21:38:05.554Z,10.00
2023-04-11T21:40:33.573Z,10.00
2023-04-11T21:43:02.072Z,10.00
2023-04-11T21:45:30.366Z,10.00
2023-04-11T21:48:01.253Z,10.00
2023-04-11T21:50:30.684Z,10.00
2023-04-11T21:53:00.244Z,10.00
2023-04-11T21:55:29.282Z,10.00
2023-04-11T21:57:57.324Z,10.00
2023-04-11T22:00:25.452Z,10.00
2023-04-11T22:02:53.953Z,9.90
2023-04-11T22:05:22.523Z,9.90
2023-04-11T22:07:51.791Z,9.90
2023-04-11T22:10:34.928Z,9.90
2023-04-11T22:13:09.667Z,9.90
2023-04-11T22:15:38.929Z,9.90
2023-04-11T22:18:09.369Z,9.90
2023-04-11T22:20:40.545Z,9.90
2023-04-11T22:23:09.910Z,9.80
2023-04-11T22:25:43.157Z,9.80
2023-04-11T22:28:15.609Z,9.80
2023-04-11T22:30:44.100Z,9.70
2023-04-11T22:33:13.825Z,9.70
2023-04-11T22:35:42.416Z,9.70
2023-04-11T22:38:10.471Z,9.60
2023-04-11T22:40:40.167Z,9.60
2023-04-11T22:43:08.345Z,9.60
2023-04-11T22:45:36.471Z,9.60
2023-04-11T22:48:05.879Z,9.60
2023-04-11T22:50:37.161Z,9.50
2023-04-11T22:53:05.994Z,9.50
2023-04-11T22:55:34.953Z,9.40
2023-04-11T22:58:04.697Z,9.40
2023-04-11T23:00:38.305Z,9.40
2023-04-11T23:03:07.512Z,9.40
2023-04-11T23:05:39.531Z,9.30
2023-04-11T23:08:07.781Z,9.30
2023-04-11T23:10:36.015Z,9.20
2023-04-11T23:13:05.383Z,9.20
2023-04-11T23:15:34.050Z,9.20
2023-04-11T23:18:02.313Z,9.10
2023-04-11T23:20:30.453Z,9.10
2023-04-11T23:22:59.256Z,9.10
2023-04-11T23:25:27.904Z,9.10
2023-04-11T23:27:56.505Z,9.00
2023-04-11T23:30:26.057Z,9.00
2023-04-11T23:32:56.204Z,8.90
2023-04-11T23:35:24.271Z,8.90
2023-04-11T23:37:52.690Z,8.90
2023-04-11T23:40:21.759Z,8.80
2023-04-11T23:42:49.736Z,8.80
2023-04-11T23:45:20.572Z,8.80
2023-04-11T23:47:50.117Z,8.70
2023-04-11T23:50:18.404Z,8.70
2023-04-11T23:52:46.932Z,8.70
2023-04-11T23:55:15.444Z,8.60
2023-04-11T23:57:43.564Z,8.60
